ダブリン の空港の天気 - METARとTAF

ダブリン空港 ( EIDW / DUB ) - アイルランド ダブリン
飛行場実況気象(Metar)
観測時間07/07 12:30 GMT (07/07 11:30 UTC)
風向・風速南東 4m/s
視程8000m
天気現象弱い雨
少しの雲 雲底高度 180m
全天の4割程度の雲 雲底高度 370m
全天の8割程度の雲 雲底高度 640m
気温11℃
湿度94%
気圧1016hPa
METAREIDW 071130Z 14007KT 100V170 8000 -RA FEW006 SCT012 BKN021 11/10 Q1016 NOSIG
過去の天気等 Google飛行場航空写真 Wunderground天気予報

過去48時間のMETAR

飛行場予報(TAF)
発表時間: 7/07 12:00 GMT (7/07 11:00 UTC)
予報対象時間: 7日13時 GMT ~ 8日13時 GMT
風向・風速南東 3m/s
視程8000m
天気現象弱い雨霧雨
全天の4割程度の雲 雲底高度 240m
全天の8割程度の雲 雲底高度 760m
7日13時 GMT ~ 8日4時 GMT に一時的に
視程4000m
天気現象
全天の8割程度の雲 雲底高度 300m
7日15時 GMT ~ 7日17時 GMT に徐々に
風向・風速不定 2m/s
7日19時 GMT ~ 8日4時 GMT に 確率 40% で一時的に
視程2000m
天気現象もや
全天の8割程度の雲 雲底高度 90m
8日8時 GMT ~ 8日10時 GMT に徐々に
風向・風速北北東 4m/s
視程9000m
全天の8割程度の雲 雲底高度 460m
TAF EIDW 071100Z 0712/0812 14005KT 8000 -RADZ SCT008 BKN025
TEMPO 0712/0803 4000 RA BKN010
BECMG 0714/0716 VRB03KT
PROB40 TEMPO 0718/0803 2000 BR BKN003
BECMG 0807/0809 03007KT 9000 BKN015